Terminal Aerodrome Forecast
Issued by NWS

Home | Current Version | Previous Version | Text Only | Print | Product List | Glossary On
Versions: 1 2 3 4 5 6 7 8 9 10 11 12 13 14 15 16
627
FTUS45 KFGZ 111132
TAFSEZ
TAF
KSEZ 111132Z 1112/1212 05011G17KT P6SM FEW250
     FM111400 VRB05KT P6SM FEW250
     FM120300 05008KT P6SM SKC=

USA.gov is the U.S. government's official web portal to all federal, state and local government web resources and services.